createdAt,value
2022-12-05T00:03:10.877Z,0.74
2022-12-05T00:09:42.876Z,0.80
2022-12-05T00:13:00.449Z,0.73
2022-12-05T00:16:20.699Z,0.66
2022-12-05T00:19:37.068Z,0.57
2022-12-05T00:26:12.064Z,0.76
2022-12-05T00:29:29.804Z,0.77
2022-12-05T00:32:45.862Z,0.78
2022-12-05T00:36:01.985Z,0.60
2022-12-05T00:39:20.557Z,0.71
2022-12-05T00:42:36.785Z,0.79
2022-12-05T00:45:53.006Z,0.78
2022-12-05T00:49:12.440Z,0.83
2022-12-05T00:52:28.520Z,0.80
2022-12-05T00:55:47.807Z,0.59
2022-12-05T00:59:02.873Z,0.59
2022-12-05T01:02:20.773Z,0.66
2022-12-05T01:10:30.408Z,0.71
2022-12-05T01:13:47.007Z,0.69
2022-12-05T01:17:04.584Z,0.70
2022-12-05T01:20:21.634Z,0.68
2022-12-05T01:26:53.901Z,0.54
2022-12-05T01:30:11.958Z,0.58
2022-12-05T01:33:28.091Z,0.55
2022-12-05T01:36:44.631Z,0.49
2022-12-05T01:40:01.096Z,0.49
2022-12-05T01:43:24.607Z,0.52
2022-12-05T01:46:44.730Z,0.55
2022-12-05T01:50:01.375Z,0.44
2022-12-05T01:53:18.071Z,0.54
2022-12-05T01:56:34.380Z,0.57
2022-12-05T01:59:56.296Z,0.58
2022-12-05T02:03:18.785Z,0.63
2022-12-05T02:09:50.189Z,0.64
2022-12-05T02:13:11.602Z,0.64
2022-12-05T02:16:35.574Z,0.61
2022-12-05T02:20:30.924Z,0.68
2022-12-05T02:27:16.407Z,0.68
2022-12-05T02:30:36.563Z,0.69
2022-12-05T02:33:56.659Z,0.67
2022-12-05T02:40:35.456Z,0.71
2022-12-05T02:43:58.328Z,0.67
2022-12-05T02:47:18.149Z,0.71
2022-12-05T02:50:38.074Z,0.66
2022-12-05T02:57:11.702Z,0.70
2022-12-05T03:00:29.246Z,0.67
2022-12-05T03:03:45.834Z,0.70
2022-12-05T03:07:06.784Z,0.68
2022-12-05T03:10:27.092Z,0.68
2022-12-05T03:13:48.759Z,0.69
2022-12-05T03:17:09.548Z,0.68
2022-12-05T03:20:31.254Z,0.65
2022-12-05T03:23:51.516Z,0.65
2022-12-05T03:27:13.388Z,0.67
2022-12-05T03:30:31.825Z,0.69
2022-12-05T03:33:51.897Z,0.65
2022-12-05T03:40:32.952Z,0.67
2022-12-05T03:43:55.782Z,0.69
2022-12-05T03:47:16.453Z,0.69
2022-12-05T03:50:35.535Z,0.68
2022-12-05T03:57:11.666Z,0.62
2022-12-05T04:00:29.485Z,0.67
2022-12-05T04:03:52.600Z,0.73
2022-12-05T04:07:12.857Z,0.75
2022-12-05T04:10:36.134Z,0.73
2022-12-05T04:13:56.434Z,0.74
2022-12-05T04:17:17.774Z,0.81
2022-12-05T04:20:52.029Z,0.88
2022-12-05T04:24:23.237Z,0.70
2022-12-05T04:27:44.615Z,0.82
2022-12-05T04:31:06.766Z,0.88
2022-12-05T04:34:26.900Z,0.91
2022-12-05T04:41:03.989Z,0.96
2022-12-05T04:44:23.501Z,0.99
2022-12-05T04:47:40.684Z,1.03
2022-12-05T04:51:00.832Z,1.04
2022-12-05T04:57:36.665Z,1.02
2022-12-05T05:00:58.969Z,1.02
2022-12-05T05:04:21.563Z,1.02
2022-12-05T05:07:37.882Z,1.04
2022-12-05T05:11:00.706Z,1.08
2022-12-05T05:14:16.750Z,1.07
2022-12-05T05:17:32.926Z,1.04
2022-12-05T05:20:48.987Z,1.09
2022-12-05T05:24:06.699Z,1.10
2022-12-05T05:27:22.775Z,1.10
2022-12-05T05:30:38.914Z,1.13
2022-12-05T05:33:58.175Z,1.15
2022-12-05T05:37:14.295Z,1.09
2022-12-05T05:40:30.388Z,1.04
2022-12-05T05:43:48.976Z,1.00
2022-12-05T05:47:05.146Z,0.99
2022-12-05T05:50:22.222Z,0.94
2022-12-05T05:53:38.573Z,0.95
2022-12-05T05:56:54.869Z,0.92
2022-12-05T06:00:14.017Z,0.93
2022-12-05T06:03:30.174Z,0.95
2022-12-05T06:06:47.199Z,0.94
2022-12-05T06:10:03.308Z,0.92
2022-12-05T06:13:19.436Z,0.90
2022-12-05T06:16:36.752Z,0.90
2022-12-05T06:19:53.149Z,0.90
2022-12-05T06:26:27.693Z,0.99
2022-12-05T06:29:45.770Z,1.00
2022-12-05T06:33:03.070Z,0.90
2022-12-05T06:36:22.468Z,0.95
2022-12-05T06:42:54.280Z,0.83
2022-12-05T06:46:14.624Z,0.91
2022-12-05T06:49:37.604Z,0.93
2022-12-05T06:56:10.561Z,0.95
2022-12-05T06:59:24.442Z,0.92
2022-12-05T07:02:42.164Z,0.94
2022-12-05T07:05:59.264Z,0.95
2022-12-05T07:12:32.499Z,0.95
2022-12-05T07:15:48.872Z,0.98
2022-12-05T07:19:05.517Z,1.02
2022-12-05T07:22:25.202Z,1.02
2022-12-05T07:26:51.405Z,1.01
2022-12-05T07:30:10.107Z,1.00
2022-12-05T07:33:26.234Z,1.04
2022-12-05T07:36:42.376Z,1.06
2022-12-05T07:43:14.518Z,1.01
2022-12-05T07:46:32.375Z,1.01
2022-12-05T07:49:48.426Z,1.05
2022-12-05T07:56:23.655Z,1.09
2022-12-05T07:59:40.008Z,1.11
2022-12-05T08:02:56.379Z,1.15
2022-12-05T08:06:15.328Z,1.18
2022-12-05T08:12:47.563Z,1.18
2022-12-05T08:16:07.782Z,1.19
2022-12-05T08:19:24.130Z,1.20
2022-12-05T08:22:40.416Z,1.16
2022-12-05T08:29:16.194Z,1.22
2022-12-05T08:32:32.644Z,1.26
2022-12-05T08:35:49.135Z,1.28
2022-12-05T08:39:10.420Z,1.26
2022-12-05T08:42:26.445Z,1.27
2022-12-05T08:45:42.867Z,1.28
2022-12-05T08:49:04.531Z,1.26
2022-12-05T08:52:22.801Z,1.28
2022-12-05T08:55:42.001Z,1.32
2022-12-05T08:59:04.743Z,1.35
2022-12-05T09:02:17.717Z,1.39
2022-12-05T09:05:34.399Z,1.40
2022-12-05T09:12:06.500Z,1.48
2022-12-05T09:15:23.548Z,1.53
2022-12-05T09:18:39.835Z,1.59
2022-12-05T09:21:56.009Z,1.61
2022-12-05T09:25:14.400Z,1.62
2022-12-05T09:28:30.784Z,1.68
2022-12-05T09:31:48.280Z,1.71
2022-12-05T09:35:05.150Z,1.78
2022-12-05T09:38:21.440Z,1.80
2022-12-05T09:42:11.677Z,1.81
2022-12-05T09:45:34.479Z,1.83
2022-12-05T09:48:50.921Z,1.90
2022-12-05T09:52:08.402Z,1.85
2022-12-05T09:55:27.263Z,1.86
2022-12-05T09:58:53.211Z,1.93
2022-12-05T10:02:29.439Z,1.98
2022-12-05T10:05:55.364Z,2.05
2022-12-05T10:13:00.367Z,2.17
2022-12-05T10:16:22.874Z,2.24
2022-12-05T10:19:43.933Z,2.26
2022-12-05T10:23:05.114Z,2.29
2022-12-05T10:26:24.273Z,2.16
2022-12-05T10:29:46.017Z,2.31
2022-12-05T10:33:09.731Z,2.32
2022-12-05T10:36:26.330Z,2.26
2022-12-05T10:42:59.194Z,2.24
2022-12-05T10:46:24.823Z,2.27
2022-12-05T10:49:54.735Z,2.50
2022-12-05T10:53:20.622Z,2.53
2022-12-05T10:56:53.786Z,2.71
2022-12-05T11:00:22.007Z,2.59
2022-12-05T11:03:43.114Z,2.71
2022-12-05T11:07:05.683Z,2.81
2022-12-05T11:10:33.708Z,3.03
2022-12-05T11:14:02.383Z,3.13
2022-12-05T11:17:29.464Z,3.18
2022-12-05T11:20:50.806Z,3.29
2022-12-05T11:27:38.943Z,3.45
2022-12-05T11:31:06.637Z,3.58
2022-12-05T11:34:37.969Z,3.67
2022-12-05T11:37:58.981Z,3.77
2022-12-05T11:41:33.262Z,3.80
2022-12-05T11:45:06.972Z,3.73
2022-12-05T11:48:54.645Z,3.69
2022-12-05T11:55:33.285Z,3.80
2022-12-05T11:59:25.648Z,3.91
2022-12-05T12:03:14.077Z,4.02
2022-12-05T12:06:42.332Z,4.11
2022-12-05T12:13:27.782Z,4.12
2022-12-05T12:16:54.976Z,4.15
2022-12-05T12:20:45.583Z,4.21
2022-12-05T12:24:41.711Z,4.24
2022-12-05T12:28:13.341Z,4.31
2022-12-05T12:31:58.902Z,4.36
2022-12-05T12:35:37.909Z,4.41
2022-12-05T12:39:51.069Z,4.45
2022-12-05T12:43:30.906Z,4.49
2022-12-05T12:46:43.906Z,4.53
2022-12-05T12:50:13.153Z,4.58
2022-12-05T12:53:57.994Z,4.61
2022-12-05T12:57:24.026Z,4.65
2022-12-05T13:00:51.176Z,4.70
2022-12-05T13:04:15.552Z,4.73
2022-12-05T13:07:38.613Z,4.78
2022-12-05T13:10:57.814Z,4.81
2022-12-05T13:14:20.170Z,4.86
2022-12-05T13:17:38.537Z,4.90
2022-12-05T13:20:58.639Z,4.92
2022-12-05T13:24:17.895Z,4.97
2022-12-05T13:28:04.570Z,5.01
2022-12-05T13:31:21.972Z,5.07
2022-12-05T13:34:53.823Z,5.08
2022-12-05T13:38:32.585Z,5.13
2022-12-05T13:42:12.493Z,5.15
2022-12-05T13:48:46.334Z,5.19
2022-12-05T13:52:02.915Z,5.22
2022-12-05T13:58:59.617Z,5.25
2022-12-05T14:02:52.276Z,5.27
2022-12-05T14:06:09.358Z,5.30
2022-12-05T14:15:10.052Z,5.30
2022-12-05T14:18:32.166Z,5.32
2022-12-05T14:21:56.330Z,5.26
2022-12-05T14:28:55.063Z,5.07
2022-12-05T14:32:28.100Z,5.00
2022-12-05T14:35:53.904Z,5.00
2022-12-05T14:39:31.017Z,4.93
2022-12-05T14:46:11.107Z,4.64
2022-12-05T14:50:10.401Z,4.57
2022-12-05T14:53:48.220Z,4.60
2022-12-05T14:57:17.165Z,4.58
2022-12-05T15:00:40.002Z,4.51
2022-12-05T15:04:35.533Z,4.56
2022-12-05T15:07:57.061Z,4.55
2022-12-05T15:14:33.933Z,4.49
2022-12-05T15:18:09.460Z,4.49
2022-12-05T15:21:34.734Z,4.44
2022-12-05T15:24:53.879Z,4.47
2022-12-05T15:31:29.288Z,4.47
2022-12-05T15:35:02.192Z,4.43
2022-12-05T15:38:30.699Z,4.41
2022-12-05T15:45:22.813Z,4.43
2022-12-05T15:48:43.611Z,4.41
2022-12-05T15:55:03.915Z,4.41
2022-12-05T15:58:26.245Z,4.33
2022-12-05T16:02:01.374Z,4.31
2022-12-05T16:05:31.352Z,4.30
2022-12-05T16:08:54.302Z,4.31
2022-12-05T16:12:36.542Z,4.33
2022-12-05T16:15:58.983Z,4.33
2022-12-05T16:19:23.928Z,4.33
2022-12-05T16:22:40.559Z,4.29
2022-12-05T16:25:57.839Z,4.28
2022-12-05T16:29:17.332Z,4.25
2022-12-05T16:32:33.036Z,4.23
2022-12-05T16:35:53.036Z,4.19
2022-12-05T16:39:20.832Z,4.14
2022-12-05T16:42:40.729Z,4.11
2022-12-05T16:45:59.387Z,4.05
2022-12-05T16:49:45.814Z,4.03
2022-12-05T16:52:58.554Z,3.97
2022-12-05T16:56:20.792Z,3.89
2022-12-05T16:59:47.473Z,3.85
2022-12-05T17:03:32.294Z,3.89
2022-12-05T17:06:26.412Z,3.88
2022-12-05T17:09:43.287Z,3.88
2022-12-05T17:13:04.021Z,3.89
2022-12-05T17:16:21.405Z,3.92
2022-12-05T17:19:42.006Z,3.93
2022-12-05T17:22:59.961Z,3.95
2022-12-05T17:26:23.184Z,3.87
2022-12-05T17:29:40.459Z,3.88
2022-12-05T17:32:57.070Z,3.87
2022-12-05T17:36:17.953Z,3.85
2022-12-05T17:39:35.800Z,3.87
2022-12-05T17:42:54.536Z,3.88
2022-12-05T17:46:11.762Z,3.89
2022-12-05T17:49:28.236Z,3.93
2022-12-05T17:52:47.200Z,3.94
2022-12-05T17:56:03.915Z,3.97
2022-12-05T17:59:20.325Z,3.96
2022-12-05T18:05:53.711Z,4.03
2022-12-05T18:09:30.768Z,4.10
2022-12-05T18:12:48.084Z,4.05
2022-12-05T18:16:08.687Z,4.10
2022-12-05T18:19:26.088Z,4.12
2022-12-05T18:22:43.859Z,4.09
2022-12-05T18:26:09.537Z,4.08
2022-12-05T18:29:31.292Z,4.06
2022-12-05T18:32:47.805Z,4.12
2022-12-05T18:36:04.240Z,4.09
2022-12-05T18:39:22.819Z,4.07
2022-12-05T18:42:43.076Z,4.09
2022-12-05T18:46:08.074Z,4.05
2022-12-05T18:49:25.103Z,4.05
2022-12-05T18:52:42.736Z,4.05
2022-12-05T18:56:21.738Z,4.07
2022-12-05T18:59:26.545Z,4.11
2022-12-05T19:02:45.421Z,4.10
2022-12-05T19:06:02.038Z,4.08
2022-12-05T19:09:22.606Z,4.12
2022-12-05T19:12:39.711Z,4.13
2022-12-05T19:15:55.984Z,4.08
2022-12-05T19:19:16.258Z,4.08
2022-12-05T19:22:32.657Z,4.08
2022-12-05T19:25:48.886Z,4.05
2022-12-05T19:29:06.579Z,4.03
2022-12-05T19:32:27.181Z,4.02
2022-12-05T19:35:45.426Z,4.02
2022-12-05T19:39:05.298Z,3.97
2022-12-05T19:42:21.542Z,4.02
2022-12-05T19:45:37.841Z,4.03
2022-12-05T19:48:55.384Z,3.96
2022-12-05T19:52:12.306Z,4.02
2022-12-05T19:55:28.736Z,4.10
2022-12-05T19:58:46.245Z,4.11
2022-12-05T20:02:03.495Z,4.08
2022-12-05T20:05:33.035Z,4.07
2022-12-05T20:08:52.578Z,4.09
2022-12-05T20:12:08.907Z,4.11
2022-12-05T20:15:25.825Z,4.09
2022-12-05T20:18:43.924Z,4.07
2022-12-05T20:22:00.280Z,4.08
2022-12-05T20:25:17.652Z,4.07
2022-12-05T20:28:34.947Z,4.11
2022-12-05T20:31:52.996Z,4.08
2022-12-05T20:35:09.586Z,4.04
2022-12-05T20:38:25.851Z,4.11
2022-12-05T20:41:42.951Z,4.11
2022-12-05T20:45:01.138Z,4.09
2022-12-05T20:48:18.268Z,4.10
2022-12-05T20:51:37.056Z,4.12
2022-12-05T20:54:53.504Z,4.10
2022-12-05T20:58:09.595Z,4.08
2022-12-05T21:01:29.994Z,4.10
2022-12-05T21:04:48.465Z,4.10
2022-12-05T21:08:06.012Z,4.08
2022-12-05T21:11:31.696Z,4.08
2022-12-05T21:14:53.452Z,4.11
2022-12-05T21:18:09.865Z,4.15
2022-12-05T21:21:28.619Z,4.13
2022-12-05T21:24:44.395Z,4.12
2022-12-05T21:28:00.990Z,4.15
2022-12-05T21:31:22.012Z,4.09
2022-12-05T21:34:38.302Z,4.05
2022-12-05T21:37:55.747Z,3.98
2022-12-05T21:41:12.802Z,4.00
2022-12-05T21:44:28.994Z,3.99
2022-12-05T21:47:45.536Z,3.98
2022-12-05T21:51:03.211Z,3.98
2022-12-05T21:54:22.740Z,3.99
2022-12-05T21:57:39.526Z,3.99
2022-12-05T22:00:56.055Z,4.04
2022-12-05T22:04:12.386Z,4.04
2022-12-05T22:07:28.623Z,3.97
2022-12-05T22:10:45.445Z,4.00
2022-12-05T22:14:01.943Z,3.92
2022-12-05T22:17:18.018Z,3.97
2022-12-05T22:20:35.489Z,3.93
2022-12-05T22:23:52.538Z,3.99
2022-12-05T22:27:09.008Z,4.02
2022-12-05T22:30:25.519Z,4.05
2022-12-05T22:33:42.379Z,4.04
2022-12-05T22:36:59.395Z,4.08
2022-12-05T22:40:18.086Z,4.11
2022-12-05T22:43:36.812Z,4.03
2022-12-05T22:46:53.694Z,4.04
2022-12-05T22:50:10.393Z,4.02
2022-12-05T22:53:29.416Z,4.05
2022-12-05T22:56:47.219Z,4.04
2022-12-05T23:00:03.988Z,4.03
2022-12-05T23:03:20.763Z,4.00
2022-12-05T23:06:39.441Z,3.91
2022-12-05T23:09:55.771Z,3.87
2022-12-05T23:13:12.315Z,3.88
2022-12-05T23:16:31.808Z,3.84
2022-12-05T23:19:49.585Z,3.80
2022-12-05T23:23:06.057Z,3.84
2022-12-05T23:26:23.954Z,3.82
2022-12-05T23:29:40.121Z,3.76
2022-12-05T23:32:56.428Z,3.66
2022-12-05T23:36:15.102Z,3.73
2022-12-05T23:39:31.933Z,3.77
2022-12-05T23:42:48.396Z,3.75
2022-12-05T23:46:05.379Z,3.73
2022-12-05T23:49:21.599Z,3.67
2022-12-05T23:52:38.543Z,3.71
2022-12-05T23:55:55.194Z,3.75
2022-12-05T23:59:13.194Z,3.78
